createdAt,value
2018-05-11T00:01:37.004Z,12.90
2018-05-11T00:04:04.441Z,12.90
2018-05-11T00:06:31.941Z,12.90
2018-05-11T00:08:59.381Z,12.80
2018-05-11T00:11:26.867Z,12.80
2018-05-11T00:13:54.331Z,12.80
2018-05-11T00:16:21.782Z,12.80
2018-05-11T00:18:49.441Z,12.80
2018-05-11T00:21:16.901Z,12.80
2018-05-11T00:23:44.358Z,12.80
2018-05-11T00:26:11.908Z,12.80
2018-05-11T00:28:39.318Z,12.80
2018-05-11T00:31:06.777Z,12.70
2018-05-11T00:33:34.225Z,12.70
2018-05-11T00:36:01.685Z,12.50
2018-05-11T00:38:29.255Z,12.50
2018-05-11T00:40:56.694Z,12.50
2018-05-11T00:43:24.189Z,12.50
2018-05-11T00:45:51.657Z,12.50
2018-05-11T00:48:19.130Z,12.50
2018-05-11T00:50:46.561Z,12.50
2018-05-11T00:53:14.014Z,12.50
2018-05-11T00:55:49.229Z,12.50
2018-05-11T00:58:17.450Z,12.40
2018-05-11T01:00:44.902Z,12.30
2018-05-11T01:03:12.361Z,12.40
2018-05-11T01:05:39.803Z,12.50
2018-05-11T01:08:07.257Z,12.30
2018-05-11T01:10:35.464Z,12.40
2018-05-11T01:13:03.044Z,12.30
2018-05-11T01:15:30.477Z,12.30
2018-05-11T01:17:57.918Z,12.30
2018-05-11T01:20:26.151Z,12.20
2018-05-11T01:22:53.605Z,12.20
2018-05-11T01:25:21.066Z,12.20
2018-05-11T01:27:48.515Z,12.30
2018-05-11T01:30:15.965Z,12.30
2018-05-11T01:32:43.400Z,12.30
2018-05-11T01:35:10.858Z,12.30
2018-05-11T01:37:38.306Z,12.40
2018-05-11T01:40:05.850Z,12.40
2018-05-11T01:42:33.321Z,12.30
2018-05-11T01:45:00.782Z,12.30
2018-05-11T01:47:28.341Z,12.30
2018-05-11T01:49:55.781Z,12.20
2018-05-11T01:52:23.242Z,12.20
2018-05-11T01:54:50.682Z,12.30
2018-05-11T01:57:19.007Z,12.30
2018-05-11T01:59:46.466Z,12.30
2018-05-11T02:02:13.934Z,12.30
2018-05-11T02:04:41.393Z,12.30
2018-05-11T02:07:08.835Z,12.30
2018-05-11T02:09:36.281Z,12.30
2018-05-11T02:12:04.502Z,12.30
2018-05-11T02:14:32.105Z,12.30
2018-05-11T02:16:59.631Z,12.30
2018-05-11T02:19:27.087Z,12.40
2018-05-11T02:21:54.548Z,12.30
2018-05-11T02:24:22.009Z,12.20
2018-05-11T02:26:49.441Z,12.20
2018-05-11T02:29:17.045Z,12.30
2018-05-11T02:31:44.499Z,12.20
2018-05-11T02:34:11.938Z,12.20
2018-05-11T02:36:39.393Z,12.10
2018-05-11T02:39:07.607Z,12.10
2018-05-11T02:41:35.050Z,12.10
2018-05-11T02:44:02.515Z,12.00
2018-05-11T02:46:29.960Z,12.00
2018-05-11T02:48:57.422Z,11.90
2018-05-11T02:51:24.870Z,11.90
2018-05-11T02:53:53.098Z,11.90
2018-05-11T02:56:20.569Z,11.80
2018-05-11T02:58:48.015Z,11.80
2018-05-11T03:01:15.482Z,11.80
2018-05-11T03:03:42.951Z,11.70
2018-05-11T03:06:10.393Z,11.70
2018-05-11T03:08:37.882Z,11.60
2018-05-11T03:11:05.323Z,11.60
2018-05-11T03:13:32.814Z,11.60
2018-05-11T03:16:00.360Z,11.60
2018-05-11T03:18:27.844Z,11.50
2018-05-11T03:20:55.267Z,11.50
2018-05-11T03:23:22.713Z,11.40
2018-05-11T03:25:51.039Z,11.30
2018-05-11T03:28:18.500Z,11.30
2018-05-11T03:30:45.963Z,11.30
2018-05-11T03:33:13.415Z,11.30
2018-05-11T03:35:40.984Z,11.30
2018-05-11T03:38:08.447Z,11.20
2018-05-11T03:40:35.892Z,11.30
2018-05-11T03:43:03.388Z,11.20
2018-05-11T03:45:30.797Z,11.00
2018-05-11T03:47:58.333Z,11.10
2018-05-11T03:50:25.798Z,11.10
2018-05-11T03:52:53.258Z,11.10
2018-05-11T03:55:20.790Z,11.10
2018-05-11T03:57:48.247Z,11.10
2018-05-11T04:00:15.713Z,11.00
2018-05-11T04:02:55.047Z,10.90
2018-05-11T04:05:34.322Z,11.00
2018-05-11T04:08:14.393Z,10.90
2018-05-11T04:10:41.916Z,10.90
2018-05-11T04:13:09.489Z,10.90
2018-05-11T04:15:36.914Z,10.90
2018-05-11T04:18:04.422Z,10.90
2018-05-11T04:20:31.952Z,10.90
2018-05-11T04:22:59.414Z,10.80
2018-05-11T04:25:26.850Z,10.80
2018-05-11T04:27:54.319Z,10.80
2018-05-11T04:30:21.763Z,10.70
2018-05-11T04:32:49.221Z,10.80
2018-05-11T04:35:16.657Z,10.60
2018-05-11T04:37:44.141Z,10.70
2018-05-11T04:40:11.591Z,10.80
2018-05-11T04:42:39.831Z,10.70
2018-05-11T04:45:07.368Z,10.70
2018-05-11T04:47:34.807Z,10.70
2018-05-11T04:50:03.026Z,10.80
2018-05-11T04:52:30.490Z,10.70
2018-05-11T04:54:57.961Z,10.90
2018-05-11T04:57:25.409Z,10.80
2018-05-11T04:59:52.879Z,10.90
2018-05-11T05:02:20.345Z,11.00
2018-05-11T05:04:47.793Z,11.10
2018-05-11T05:07:15.250Z,11.20
2018-05-11T05:09:42.730Z,11.10
2018-05-11T05:12:10.177Z,11.20
2018-05-11T05:14:37.668Z,11.20
2018-05-11T05:17:05.102Z,11.40
2018-05-11T05:19:32.570Z,11.40
2018-05-11T05:22:00.001Z,11.40
2018-05-11T05:24:28.221Z,11.60
2018-05-11T05:26:55.661Z,11.60
2018-05-11T05:29:23.157Z,11.80
2018-05-11T05:31:50.617Z,11.80
2018-05-11T05:34:18.190Z,11.90
2018-05-11T05:36:45.650Z,12.00
2018-05-11T05:39:13.165Z,12.10
2018-05-11T05:41:40.573Z,12.20
2018-05-11T05:44:08.118Z,12.20
2018-05-11T05:46:35.603Z,12.40
2018-05-11T05:49:03.057Z,12.40
2018-05-11T05:51:30.599Z,12.50
2018-05-11T05:53:58.077Z,12.50
2018-05-11T05:56:25.525Z,12.60
2018-05-11T05:58:53.109Z,12.70
2018-05-11T06:01:20.548Z,12.70
2018-05-11T06:03:48.003Z,12.80
2018-05-11T06:06:15.679Z,12.80
2018-05-11T06:08:43.133Z,12.90
2018-05-11T06:11:10.571Z,12.90
2018-05-11T06:13:38.901Z,13.10
2018-05-11T06:16:06.410Z,13.00
2018-05-11T06:18:33.930Z,13.10
2018-05-11T06:21:01.495Z,13.20
2018-05-11T06:23:29.125Z,13.30
2018-05-11T06:25:56.565Z,13.40
2018-05-11T06:28:24.809Z,13.40
2018-05-11T06:30:52.267Z,13.40
2018-05-11T06:33:19.737Z,13.50
2018-05-11T06:35:47.177Z,13.50
2018-05-11T06:38:14.673Z,13.60
2018-05-11T06:40:42.140Z,13.60
2018-05-11T06:43:09.590Z,13.80
2018-05-11T06:45:37.029Z,13.80
2018-05-11T06:48:04.489Z,13.90
2018-05-11T06:50:32.733Z,13.80
2018-05-11T06:53:00.948Z,13.80
2018-05-11T06:55:28.398Z,13.70
2018-05-11T06:57:55.865Z,13.90
2018-05-11T07:00:23.363Z,14.10
2018-05-11T07:02:50.805Z,14.30
2018-05-11T07:05:18.372Z,14.40
2018-05-11T07:07:45.837Z,14.40
2018-05-11T07:10:13.383Z,14.40
2018-05-11T07:12:40.869Z,14.60
2018-05-11T07:15:08.435Z,14.80
2018-05-11T07:17:35.893Z,14.80
2018-05-11T07:20:03.350Z,14.70
2018-05-11T07:22:30.819Z,14.70
2018-05-11T07:24:58.278Z,14.90
2018-05-11T07:27:25.741Z,15.00
2018-05-11T07:29:53.210Z,15.20
2018-05-11T07:32:20.669Z,15.40
2018-05-11T07:34:48.243Z,15.50
2018-05-11T07:37:15.706Z,15.70
2018-05-11T07:39:43.162Z,15.90
2018-05-11T07:42:10.626Z,15.80
2018-05-11T07:44:38.186Z,15.60
2018-05-11T07:47:05.633Z,15.60
2018-05-11T07:49:33.109Z,15.50
2018-05-11T07:52:00.654Z,15.50
2018-05-11T07:54:28.141Z,15.80
2018-05-11T07:56:55.706Z,15.90
2018-05-11T07:59:23.157Z,16.10
2018-05-11T08:01:50.634Z,16.20
2018-05-11T08:04:18.193Z,16.40
2018-05-11T08:06:45.639Z,16.40
2018-05-11T08:09:13.126Z,16.60
2018-05-11T08:11:40.594Z,16.70
2018-05-11T08:14:08.246Z,16.70
2018-05-11T08:16:35.612Z,16.70
2018-05-11T08:19:03.082Z,16.80
2018-05-11T08:21:30.638Z,16.50
2018-05-11T08:23:58.273Z,16.60
2018-05-11T08:26:25.730Z,16.60
2018-05-11T08:28:53.232Z,16.70
2018-05-11T08:31:20.878Z,16.80
2018-05-11T08:33:49.194Z,16.80
2018-05-11T08:36:16.742Z,16.70
2018-05-11T08:38:44.207Z,16.80
2018-05-11T08:41:11.681Z,17.10
2018-05-11T08:43:39.134Z,17.10
2018-05-11T08:46:06.693Z,17.00
2018-05-11T08:48:34.339Z,17.20
2018-05-11T08:51:01.825Z,17.30
2018-05-11T08:53:29.294Z,17.40
2018-05-11T08:55:56.787Z,17.10
2018-05-11T08:58:25.010Z,16.70
2018-05-11T09:00:52.487Z,16.70
2018-05-11T09:03:19.943Z,16.40
2018-05-11T09:05:47.406Z,16.60
2018-05-11T09:08:14.937Z,16.90
2018-05-11T09:10:42.321Z,17.20
2018-05-11T09:13:09.785Z,17.50
2018-05-11T09:15:37.266Z,17.20
2018-05-11T09:18:04.706Z,17.10
2018-05-11T09:20:32.173Z,17.20
2018-05-11T09:22:59.641Z,17.50
2018-05-11T09:25:27.112Z,17.60
2018-05-11T09:27:54.556Z,17.80
2018-05-11T09:30:22.032Z,17.80
2018-05-11T09:32:49.487Z,17.90
2018-05-11T09:35:16.950Z,18.00
2018-05-11T09:37:44.533Z,18.00
2018-05-11T09:40:12.390Z,17.70
2018-05-11T09:42:39.861Z,17.60
2018-05-11T09:45:07.338Z,17.20
2018-05-11T09:47:34.804Z,17.00
2018-05-11T09:50:02.271Z,16.80
2018-05-11T09:52:29.728Z,17.00
2018-05-11T09:54:57.181Z,17.20
2018-05-11T09:57:24.641Z,17.30
2018-05-11T09:59:52.106Z,17.50
2018-05-11T10:02:19.669Z,17.60
2018-05-11T10:04:48.080Z,17.60
2018-05-11T10:07:15.932Z,17.70
2018-05-11T10:09:43.775Z,18.00
2018-05-11T10:12:11.285Z,18.10
2018-05-11T10:14:38.836Z,17.90
2018-05-11T10:17:06.289Z,17.90
2018-05-11T10:19:33.757Z,18.00
2018-05-11T10:22:01.342Z,18.00
2018-05-11T10:24:29.757Z,17.60
2018-05-11T10:26:57.233Z,17.60
2018-05-11T10:29:24.694Z,17.60
2018-05-11T10:31:52.150Z,17.80
2018-05-11T10:34:19.613Z,18.00
2018-05-11T10:36:47.111Z,18.10
2018-05-11T10:39:14.799Z,18.10
2018-05-11T10:41:42.265Z,18.20
2018-05-11T10:44:09.807Z,18.20
2018-05-11T10:46:37.278Z,18.30
2018-05-11T10:49:04.722Z,18.40
2018-05-11T10:51:32.169Z,18.30
2018-05-11T10:53:59.626Z,18.20
2018-05-11T10:56:27.076Z,18.40
2018-05-11T10:58:55.305Z,18.40
2018-05-11T11:01:22.830Z,18.30
2018-05-11T11:03:50.325Z,18.40
2018-05-11T11:06:17.885Z,18.30
2018-05-11T11:08:45.349Z,18.40
2018-05-11T11:11:12.801Z,18.50
2018-05-11T11:13:40.273Z,18.70
2018-05-11T11:16:07.741Z,18.80
2018-05-11T11:18:35.305Z,18.80
2018-05-11T11:21:02.742Z,18.70
2018-05-11T11:23:30.205Z,18.50
2018-05-11T11:25:57.779Z,18.50
2018-05-11T11:28:25.165Z,18.90
2018-05-11T11:30:52.620Z,18.80
2018-05-11T11:33:20.094Z,18.80
2018-05-11T11:35:47.562Z,18.90
2018-05-11T11:38:15.006Z,19.10
2018-05-11T11:40:42.453Z,19.20
2018-05-11T11:43:09.934Z,18.80
2018-05-11T11:45:37.401Z,18.70
2018-05-11T11:48:04.847Z,18.80
2018-05-11T11:50:32.325Z,18.50
2018-05-11T11:52:59.765Z,18.50
2018-05-11T11:55:27.283Z,18.70
2018-05-11T11:57:54.755Z,18.90
2018-05-11T12:00:22.989Z,19.30
2018-05-11T12:02:50.454Z,19.30
2018-05-11T12:05:17.918Z,19.40
2018-05-11T12:07:45.373Z,19.60
2018-05-11T12:10:12.835Z,19.60
2018-05-11T12:12:40.305Z,19.20
2018-05-11T12:15:07.749Z,19.10
2018-05-11T12:17:35.225Z,19.10
2018-05-11T12:20:02.689Z,19.20
2018-05-11T12:22:30.250Z,19.30
2018-05-11T12:24:57.686Z,19.50
2018-05-11T12:27:25.182Z,19.50
2018-05-11T12:29:52.630Z,19.80
2018-05-11T12:32:20.105Z,20.00
2018-05-11T12:34:47.580Z,20.00
2018-05-11T12:37:15.045Z,20.00
2018-05-11T12:39:42.588Z,19.60
2018-05-11T12:42:10.037Z,19.50
2018-05-11T12:44:37.501Z,19.30
2018-05-11T12:47:04.972Z,19.50
2018-05-11T12:49:32.438Z,19.70
2018-05-11T12:51:59.886Z,19.90
2018-05-11T12:54:27.369Z,19.70
2018-05-11T12:56:54.925Z,19.40
2018-05-11T12:59:22.391Z,19.30
2018-05-11T13:01:49.860Z,19.10
2018-05-11T13:04:17.326Z,19.00
2018-05-11T13:06:44.790Z,19.30
2018-05-11T13:09:12.252Z,19.40
2018-05-11T13:11:39.816Z,19.70
2018-05-11T13:14:07.277Z,19.90
2018-05-11T13:16:34.729Z,19.80
2018-05-11T13:19:02.189Z,20.00
2018-05-11T13:21:29.822Z,20.10
2018-05-11T13:23:58.017Z,19.90
2018-05-11T13:26:25.479Z,19.80
2018-05-11T13:28:52.966Z,19.80
2018-05-11T13:31:20.409Z,19.90
2018-05-11T13:33:47.869Z,20.00
2018-05-11T13:36:15.343Z,20.10
2018-05-11T13:38:42.821Z,20.30
2018-05-11T13:41:10.424Z,20.20
2018-05-11T13:43:38.649Z,20.10
2018-05-11T13:46:06.201Z,20.10
2018-05-11T13:48:33.728Z,19.90
2018-05-11T13:51:01.877Z,19.70
2018-05-11T13:53:29.362Z,19.60
2018-05-11T13:55:56.818Z,19.80
2018-05-11T13:58:24.285Z,19.80
2018-05-11T14:00:51.730Z,19.80
2018-05-11T14:03:19.199Z,19.70
2018-05-11T14:05:46.657Z,19.40
2018-05-11T14:08:14.119Z,19.60
2018-05-11T14:10:41.582Z,19.60
2018-05-11T14:13:09.026Z,19.40
2018-05-11T14:15:36.591Z,19.30
2018-05-11T14:18:04.034Z,19.50
2018-05-11T14:20:32.221Z,19.50
2018-05-11T14:22:59.681Z,19.50
2018-05-11T14:25:27.157Z,19.80
2018-05-11T14:27:54.621Z,20.00
2018-05-11T14:30:22.085Z,19.90
2018-05-11T14:32:49.545Z,20.00
2018-05-11T14:35:17.004Z,20.10
2018-05-11T14:37:44.553Z,20.20
2018-05-11T14:40:12.153Z,20.30
2018-05-11T14:42:39.618Z,20.30
2018-05-11T14:45:07.077Z,20.40
2018-05-11T14:47:34.635Z,20.60
2018-05-11T14:50:02.197Z,20.50
2018-05-11T14:52:29.838Z,20.30
2018-05-11T14:54:57.286Z,20.20
2018-05-11T14:57:24.820Z,20.10
2018-05-11T14:59:52.282Z,19.90
2018-05-11T15:02:19.721Z,19.90
2018-05-11T15:04:47.190Z,19.90
2018-05-11T15:07:14.641Z,19.60
2018-05-11T15:09:42.101Z,19.60
2018-05-11T15:12:09.569Z,19.50
2018-05-11T15:14:37.049Z,19.40
2018-05-11T15:17:04.497Z,19.50
2018-05-11T15:19:31.938Z,19.60
2018-05-11T15:21:59.405Z,19.50
2018-05-11T15:24:26.846Z,19.50
2018-05-11T15:26:54.309Z,19.40
2018-05-11T15:29:21.753Z,19.30
2018-05-11T15:31:49.994Z,19.40
2018-05-11T15:34:17.443Z,19.30
2018-05-11T15:36:44.877Z,19.40
2018-05-11T15:39:12.326Z,19.50
2018-05-11T15:41:39.766Z,19.70
2018-05-11T15:44:07.390Z,19.60
2018-05-11T15:46:34.828Z,19.60
2018-05-11T15:49:02.346Z,19.60
2018-05-11T15:51:29.872Z,19.60
2018-05-11T15:53:57.443Z,19.50
2018-05-11T15:56:24.882Z,19.30
2018-05-11T15:58:52.366Z,19.30
2018-05-11T16:01:19.910Z,19.10
2018-05-11T16:03:47.397Z,19.10
2018-05-11T16:06:14.959Z,19.20
2018-05-11T16:08:42.417Z,19.20
2018-05-11T16:11:09.861Z,19.20
2018-05-11T16:13:37.336Z,19.20
2018-05-11T16:16:04.787Z,19.20
2018-05-11T16:18:32.248Z,19.20
2018-05-11T16:20:59.685Z,19.20
2018-05-11T16:23:28.013Z,19.20
2018-05-11T16:25:55.469Z,19.20
2018-05-11T16:28:22.922Z,19.20
2018-05-11T16:30:50.375Z,19.30
2018-05-11T16:33:17.845Z,19.30
2018-05-11T16:35:45.281Z,19.30
2018-05-11T16:38:13.505Z,19.30
2018-05-11T16:40:41.077Z,19.30
2018-05-11T16:43:08.537Z,19.30
2018-05-11T16:45:35.999Z,19.40
2018-05-11T16:48:03.469Z,19.40
2018-05-11T16:50:31.022Z,19.30
2018-05-11T16:52:58.492Z,19.30
2018-05-11T16:55:25.967Z,19.20
2018-05-11T16:57:53.428Z,19.20
2018-05-11T17:00:20.957Z,19.20
2018-05-11T17:02:48.419Z,19.10
2018-05-11T17:05:15.901Z,19.10
2018-05-11T17:07:43.430Z,19.00
2018-05-11T17:10:11.649Z,18.90
2018-05-11T17:12:39.214Z,18.90
2018-05-11T17:15:06.673Z,18.90
2018-05-11T17:17:34.177Z,18.90
2018-05-11T17:20:02.426Z,18.80
2018-05-11T17:22:29.944Z,18.70
2018-05-11T17:24:57.466Z,18.80
2018-05-11T17:27:24.929Z,18.70
2018-05-11T17:29:52.405Z,18.70
2018-05-11T17:32:21.358Z,18.70
2018-05-11T17:34:48.829Z,18.80
2018-05-11T17:37:16.297Z,18.80
2018-05-11T17:39:43.749Z,18.70
2018-05-11T17:42:11.253Z,18.60
2018-05-11T17:44:39.495Z,18.50
2018-05-11T17:47:06.970Z,18.40
2018-05-11T17:49:34.530Z,18.50
2018-05-11T17:52:02.085Z,18.40
2018-05-11T17:54:29.533Z,18.30
2018-05-11T17:56:57.077Z,18.30
2018-05-11T17:59:24.460Z,18.30
2018-05-11T18:01:51.940Z,18.30
2018-05-11T18:04:19.539Z,18.30
2018-05-11T18:06:47.777Z,18.40
2018-05-11T18:09:15.327Z,18.30
2018-05-11T18:11:42.815Z,18.30
2018-05-11T18:14:10.378Z,18.40
2018-05-11T18:16:37.986Z,18.40
2018-05-11T18:19:06.241Z,18.30
2018-05-11T18:21:33.663Z,18.30
2018-05-11T18:24:01.153Z,18.30
2018-05-11T18:26:28.601Z,18.30
2018-05-11T18:28:56.060Z,18.20
2018-05-11T18:31:23.632Z,18.20
2018-05-11T18:33:51.082Z,18.20
2018-05-11T18:36:18.562Z,18.20
2018-05-11T18:38:46.038Z,18.10
2018-05-11T18:41:13.590Z,18.10
2018-05-11T18:43:41.471Z,18.10
2018-05-11T18:46:09.206Z,18.10
2018-05-11T18:48:37.494Z,18.00
2018-05-11T18:51:04.998Z,17.90
2018-05-11T18:53:32.783Z,18.00
2018-05-11T18:55:59.989Z,17.90
2018-05-11T18:58:27.490Z,17.90
2018-05-11T19:00:55.030Z,17.90
2018-05-11T19:03:22.572Z,17.80
2018-05-11T19:05:50.059Z,17.80
2018-05-11T19:08:17.517Z,17.80
2018-05-11T19:10:44.973Z,17.70
2018-05-11T19:13:12.442Z,17.60
2018-05-11T19:15:40.011Z,17.60
2018-05-11T19:18:07.446Z,17.60
2018-05-11T19:20:34.931Z,17.50
2018-05-11T19:23:02.374Z,17.50
2018-05-11T19:25:29.843Z,17.50
2018-05-11T19:27:57.302Z,17.40
2018-05-11T19:30:25.322Z,17.40
2018-05-11T19:32:52.766Z,17.30
2018-05-11T19:35:20.278Z,17.30
2018-05-11T19:37:48.479Z,17.20
2018-05-11T19:40:15.930Z,17.20
2018-05-11T19:42:43.449Z,17.10
2018-05-11T19:45:10.995Z,17.10
2018-05-11T19:47:38.483Z,17.10
2018-05-11T19:50:05.983Z,17.10
2018-05-11T19:52:33.458Z,17.10
2018-05-11T19:55:00.946Z,17.00
2018-05-11T19:57:28.513Z,17.00
2018-05-11T19:59:55.958Z,16.80
2018-05-11T20:02:23.498Z,16.80
2018-05-11T20:04:51.077Z,16.80
2018-05-11T20:07:18.548Z,16.70
2018-05-11T20:09:46.006Z,16.70
2018-05-11T20:12:13.475Z,16.70
2018-05-11T20:14:40.920Z,16.70
2018-05-11T20:17:08.395Z,16.70
2018-05-11T20:19:35.852Z,16.70
2018-05-11T20:22:03.352Z,16.70
2018-05-11T20:24:30.798Z,16.60
2018-05-11T20:26:58.270Z,16.60
2018-05-11T20:29:25.731Z,16.50
2018-05-11T20:31:53.194Z,16.50
2018-05-11T20:34:20.645Z,16.50
2018-05-11T20:36:48.115Z,16.40
2018-05-11T20:39:15.654Z,16.40
2018-05-11T20:41:43.098Z,16.40
2018-05-11T20:44:11.412Z,16.30
2018-05-11T20:46:38.859Z,16.30
2018-05-11T20:49:06.323Z,16.30
2018-05-11T20:51:33.787Z,16.20
2018-05-11T20:54:01.276Z,16.20
2018-05-11T20:56:28.730Z,16.10
2018-05-11T20:58:56.274Z,16.10
2018-05-11T21:01:23.737Z,16.00
2018-05-11T21:03:51.231Z,16.00
2018-05-11T21:06:18.683Z,16.00
2018-05-11T21:08:46.129Z,15.90
2018-05-11T21:11:13.612Z,15.90
2018-05-11T21:13:41.050Z,15.80
2018-05-11T21:16:08.499Z,15.80
2018-05-11T21:18:35.978Z,15.80
2018-05-11T21:21:03.465Z,15.80
2018-05-11T21:23:30.938Z,15.70
2018-05-11T21:25:58.387Z,15.70
2018-05-11T21:28:25.863Z,15.60
2018-05-11T21:30:53.325Z,15.60
2018-05-11T21:33:20.782Z,15.60
2018-05-11T21:35:48.251Z,15.50
2018-05-11T21:38:15.699Z,15.40
2018-05-11T21:40:43.180Z,15.40
2018-05-11T21:43:10.629Z,15.40
2018-05-11T21:45:38.193Z,15.30
2018-05-11T21:48:05.657Z,15.30
2018-05-11T21:50:33.215Z,15.20
2018-05-11T21:53:00.606Z,15.20
2018-05-11T21:55:28.073Z,15.10
2018-05-11T21:57:55.537Z,15.10
2018-05-11T22:00:22.989Z,15.10
2018-05-11T22:02:50.447Z,15.00
2018-05-11T22:05:17.919Z,15.00
2018-05-11T22:07:45.439Z,14.90
2018-05-11T22:10:12.914Z,14.90
2018-05-11T22:12:40.386Z,14.90
2018-05-11T22:15:07.855Z,14.80
2018-05-11T22:17:35.315Z,14.80
2018-05-11T22:20:02.875Z,14.80
2018-05-11T22:22:30.318Z,14.70
2018-05-11T22:24:57.795Z,14.70
2018-05-11T22:27:25.278Z,14.60
2018-05-11T22:29:52.722Z,14.60
2018-05-11T22:32:20.170Z,14.60
2018-05-11T22:34:47.650Z,14.60
2018-05-11T22:37:15.103Z,14.60
2018-05-11T22:39:42.579Z,14.60
2018-05-11T22:42:10.099Z,14.60
2018-05-11T22:44:37.501Z,14.50
2018-05-11T22:47:04.964Z,14.50
2018-05-11T22:49:32.497Z,14.40
2018-05-11T22:51:59.874Z,14.40
2018-05-11T22:54:27.458Z,14.40
2018-05-11T22:56:54.948Z,14.30
2018-05-11T22:59:22.478Z,14.30
2018-05-11T23:01:49.938Z,14.30
2018-05-11T23:04:17.502Z,14.30
2018-05-11T23:06:44.964Z,14.20
2018-05-11T23:09:12.428Z,14.20
2018-05-11T23:11:39.890Z,14.20
2018-05-11T23:14:07.361Z,14.20
2018-05-11T23:16:34.828Z,14.10
2018-05-11T23:19:02.378Z,14.10
2018-05-11T23:21:29.844Z,14.00
2018-05-11T23:23:57.298Z,14.00
2018-05-11T23:26:24.774Z,14.00
2018-05-11T23:28:52.234Z,14.00
2018-05-11T23:31:19.701Z,13.90
2018-05-11T23:33:47.159Z,13.90
2018-05-11T23:36:14.619Z,13.80
2018-05-11T23:38:42.093Z,13.80
2018-05-11T23:41:09.656Z,13.80
2018-05-11T23:43:37.118Z,13.80
2018-05-11T23:46:04.582Z,13.80
2018-05-11T23:48:32.135Z,13.80
2018-05-11T23:50:59.610Z,13.70
2018-05-11T23:53:27.082Z,13.70
2018-05-11T23:55:54.533Z,13.70
2018-05-11T23:58:22.011Z,13.60
